Flight Track Log - Related Links

Times and Time Zones

All times are in EDT time to prevent confusion due to time zone crossing. See the N3223B flight status page for this flight to view local times or setup timezone preferences in your user account.

Time Position Orientation Groundspeed Altitude Reporting Facility
EDT Latitude Longitude Course Direction KTS MPH feet Rate Location/Type
Fri 07:04:38 PM 41.0833 -73.7167 360° North 100 115 1,100  Level New York TRACON
Fri 07:05:38 PM 41.1167 -73.7167 360° North 128 147 1,800 624 Climbing New York TRACON
Fri 07:06:43 PM 41.1667 -73.7167 360° North 140 161 2,400 672 Climbing New York TRACON
Fri 07:07:43 PM 41.2000 -73.7167 360° North 140 161 3,200 800 Climbing New York TRACON
Fri 07:08:43 PM 41.2333 -73.7167 360° North 139 160 4,000 750 Climbing New York TRACON
Fri 07:09:43 PM 41.2833 -73.7167 360° North 141 162 4,700 800 Climbing New York TRACON
Fri 07:10:43 PM 41.3167 -73.7167 360° North 139 160 5,600 450 Climbing New York TRACON
Fri 07:11:43 PM 41.3667 -73.7167 360° North 166 191 5,600  Level New York TRACON
Fri 07:12:44 PM 41.4000 -73.7167 360° North 170 196 5,600  Level New York TRACON
Fri 07:13:43 PM 41.4667 -73.7167 360° North 171 197 5,600  Level New York TRACON
Fri 07:14:43 PM 41.5000 -73.7333 339° North 171 197 5,600  Level New York TRACON
Fri 07:15:43 PM 41.5500 -73.7333 360° North 172 198 5,600  Level New York TRACON
Fri 07:17:01 PM 41.6167 -73.7500 349° North 171 197 5,600  Level New York TRACON
Fri 07:18:01 PM 41.6500 -73.7500 360° North 176 203 5,600  Level New York TRACON
Fri 07:19:01 PM 41.7000 -73.7500 360° North 179 206 5,600  Level New York TRACON
Fri 07:20:01 PM 41.7500 -73.7500 360° North 177 204 5,600  Level New York TRACON
Fri 07:21:01 PM 41.8000 -73.7500 360° North 178 205 5,600  Level New York TRACON
Fri 07:21:56 PM 41.8500 -73.7500 360° North 176 203 5,600  Level New York TRACON
Fri 07:23:01 PM 41.9000 -73.7667 346° North 174 200 5,600  Level New York TRACON
Fri 07:24:02 PM 41.9500 -73.7667 360° North 176 203 5,600 -85 Level New York TRACON
Fri 07:25:22 PM 42.0153 -73.7675 359° North 175 201 5,400 -43 Descending Boston Center
Fri 07:26:23 PM 42.0611 -73.7711 357° North 173 199 5,500 49 Climbing Boston Center
Fri 07:27:24 PM 42.1153 -73.7722 359° North 170 196 5,500  Level Boston Center
Fri 07:28:24 PM 42.1611 -73.7761 356° North 170 196 5,500  Level Boston Center
Fri 07:29:25 PM 42.2092 -73.7800 357° North 170 196 5,500  Level Boston Center
Fri 07:30:26 PM 42.2550 -73.7836 357° North 170 196 5,500  Level Boston Center
Fri 07:31:26 PM 42.3028 -73.7819 North 173 199 5,500 -50 Level Boston Center
Fri 07:32:27 PM 42.3508 -73.7858 357° North 174 200 5,400 -197 Descending Boston Center
Fri 07:33:28 PM 42.4028 -73.7811 North 176 203 5,100 -446 Descending Boston Center
Fri 07:34:28 PM 42.4531 -73.7767 North 179 206 4,500 -595 Descending Boston Center
Fri 07:35:29 PM 42.5031 -73.7694 North 179 206 3,900 -541 Descending Boston Center
Fri 07:36:30 PM 42.5511 -73.7619 North 179 206 3,400 -590 Descending Boston Center
Fri 07:37:31 PM 42.6033 -73.7544 North 181 208 2,700 -645 Descending Boston Center
Fri 07:38:31 PM 42.6514 -73.7414 11° North 181 208 2,100 -545 Descending Boston Center
Fri 07:39:32 PM 42.7014 -73.7397 North 168 193 1,600 -422 Descending Boston Center
Fri 07:40:39 PM 42.7431 -73.7406 359° North 112 129 1,200 -472 Descending Boston Center
Fri 07:41:39 PM 42.7492 -73.7661 288° West 84 97 600 -600 Descending Boston Center
Fri 07:43:00 PM 42.7333 -73.8000 270° West  Level FlightAware Approximate

Login

Don't have an account? Register now (free) for customized features, flight alerts, and more!